sensor_id;sensor_type;location;lat;lon;timestamp;P1;durP1;ratioP1;P2;durP2;ratioP2
55417;SDS011;41287;47.554;7.844;2023-05-19T00:01:08;2.88;;;1.40;;
55417;SDS011;41287;47.554;7.844;2023-05-19T00:03:34;4.85;;;1.85;;
55417;SDS011;41287;47.554;7.844;2023-05-19T00:06:04;3.28;;;1.60;;
55417;SDS011;41287;47.554;7.844;2023-05-19T00:08:32;4.03;;;1.70;;
55417;SDS011;41287;47.554;7.844;2023-05-19T00:10:59;2.65;;;1.33;;
55417;SDS011;41287;47.554;7.844;2023-05-19T00:13:26;5.13;;;1.85;;
55417;SDS011;41287;47.554;7.844;2023-05-19T00:15:52;2.63;;;1.50;;
55417;SDS011;41287;47.554;7.844;2023-05-19T00:18:18;3.40;;;1.33;;
55417;SDS011;41287;47.554;7.844;2023-05-19T00:20:44;3.55;;;1.63;;
55417;SDS011;41287;47.554;7.844;2023-05-19T00:23:09;2.15;;;1.40;;
55417;SDS011;41287;47.554;7.844;2023-05-19T00:25:35;4.65;;;1.67;;
55417;SDS011;41287;47.554;7.844;2023-05-19T00:28:00;3.75;;;1.50;;
55417;SDS011;41287;47.554;7.844;2023-05-19T00:30:27;2.97;;;1.50;;
55417;SDS011;41287;47.554;7.844;2023-05-19T00:32:53;5.15;;;1.45;;
55417;SDS011;41287;47.554;7.844;2023-05-19T00:35:18;3.90;;;1.40;;
55417;SDS011;41287;47.554;7.844;2023-05-19T00:37:44;5.32;;;1.60;;
55417;SDS011;41287;47.554;7.844;2023-05-19T00:40:09;2.45;;;1.30;;
55417;SDS011;41287;47.554;7.844;2023-05-19T00:42:37;3.60;;;1.52;;
55417;SDS011;41287;47.554;7.844;2023-05-19T00:45:03;3.00;;;1.63;;
55417;SDS011;41287;47.554;7.844;2023-05-19T00:47:29;3.30;;;1.73;;
55417;SDS011;41287;47.554;7.844;2023-05-19T00:49:54;3.75;;;1.70;;
55417;SDS011;41287;47.554;7.844;2023-05-19T00:52:20;2.88;;;1.42;;
55417;SDS011;41287;47.554;7.844;2023-05-19T00:54:45;3.15;;;1.40;;
55417;SDS011;41287;47.554;7.844;2023-05-19T00:57:12;4.03;;;1.42;;
55417;SDS011;41287;47.554;7.844;2023-05-19T00:59:38;2.00;;;1.15;;
55417;SDS011;41287;47.554;7.844;2023-05-19T01:02:03;3.90;;;1.75;;
55417;SDS011;41287;47.554;7.844;2023-05-19T01:04:29;5.13;;;1.80;;
55417;SDS011;41287;47.554;7.844;2023-05-19T01:06:58;4.30;;;1.40;;
55417;SDS011;41287;47.554;7.844;2023-05-19T01:09:24;3.80;;;1.50;;
55417;SDS011;41287;47.554;7.844;2023-05-19T01:11:50;4.85;;;1.60;;
55417;SDS011;41287;47.554;7.844;2023-05-19T01:14:16;4.28;;;1.63;;
55417;SDS011;41287;47.554;7.844;2023-05-19T01:16:49;3.63;;;1.67;;
55417;SDS011;41287;47.554;7.844;2023-05-19T01:19:45;2.15;;;1.25;;
55417;SDS011;41287;47.554;7.844;2023-05-19T01:28:19;3.95;;;1.58;;
55417;SDS011;41287;47.554;7.844;2023-05-19T01:30:56;3.40;;;1.23;;
55417;SDS011;41287;47.554;7.844;2023-05-19T01:33:23;4.43;;;1.33;;
55417;SDS011;41287;47.554;7.844;2023-05-19T01:35:50;3.83;;;1.50;;
55417;SDS011;41287;47.554;7.844;2023-05-19T01:38:17;5.13;;;1.45;;
55417;SDS011;41287;47.554;7.844;2023-05-19T01:40:44;2.50;;;1.30;;
55417;SDS011;41287;47.554;7.844;2023-05-19T01:43:17;3.20;;;1.27;;
55417;SDS011;41287;47.554;7.844;2023-05-19T01:45:45;2.97;;;1.48;;
55417;SDS011;41287;47.554;7.844;2023-05-19T01:48:10;4.00;;;1.50;;
55417;SDS011;41287;47.554;7.844;2023-05-19T01:50:37;2.42;;;1.40;;
55417;SDS011;41287;47.554;7.844;2023-05-19T01:53:03;4.07;;;1.70;;
55417;SDS011;41287;47.554;7.844;2023-05-19T01:55:29;3.83;;;1.25;;
55417;SDS011;41287;47.554;7.844;2023-05-19T02:00:51;4.97;;;1.63;;
55417;SDS011;41287;47.554;7.844;2023-05-19T02:06:17;2.75;;;1.25;;
55417;SDS011;41287;47.554;7.844;2023-05-19T02:11:46;3.20;;;1.38;;
55417;SDS011;41287;47.554;7.844;2023-05-19T02:17:03;3.13;;;1.40;;
55417;SDS011;41287;47.554;7.844;2023-05-19T02:19:30;2.80;;;1.40;;
55417;SDS011;41287;47.554;7.844;2023-05-19T02:21:57;2.40;;;1.50;;
55417;SDS011;41287;47.554;7.844;2023-05-19T02:24:27;2.70;;;1.45;;
55417;SDS011;41287;47.554;7.844;2023-05-19T02:26:52;3.03;;;1.10;;
55417;SDS011;41287;47.554;7.844;2023-05-19T02:29:18;3.90;;;1.60;;
55417;SDS011;41287;47.554;7.844;2023-05-19T02:31:44;2.05;;;1.27;;
55417;SDS011;41287;47.554;7.844;2023-05-19T02:34:10;3.13;;;1.33;;
55417;SDS011;41287;47.554;7.844;2023-05-19T02:36:35;3.05;;;1.63;;
55417;SDS011;41287;47.554;7.844;2023-05-19T02:39:02;3.17;;;1.48;;
55417;SDS011;41287;47.554;7.844;2023-05-19T02:41:31;2.35;;;1.38;;
55417;SDS011;41287;47.554;7.844;2023-05-19T02:43:56;2.30;;;1.30;;
55417;SDS011;41287;47.554;7.844;2023-05-19T02:46:22;2.80;;;1.50;;
55417;SDS011;41287;47.554;7.844;2023-05-19T02:48:48;3.10;;;1.38;;
55417;SDS011;41287;47.554;7.844;2023-05-19T02:51:13;4.22;;;1.60;;
55417;SDS011;41287;47.554;7.844;2023-05-19T02:53:38;4.63;;;1.73;;
55417;SDS011;41287;47.554;7.844;2023-05-19T02:56:04;3.28;;;1.35;;
55417;SDS011;41287;47.554;7.844;2023-05-19T02:58:29;3.30;;;1.40;;
55417;SDS011;41287;47.554;7.844;2023-05-19T03:00:55;2.38;;;1.40;;
55417;SDS011;41287;47.554;7.844;2023-05-19T03:03:21;1.75;;;1.25;;
55417;SDS011;41287;47.554;7.844;2023-05-19T03:05:46;4.35;;;1.63;;
55417;SDS011;41287;47.554;7.844;2023-05-19T03:08:12;3.47;;;1.40;;
55417;SDS011;41287;47.554;7.844;2023-05-19T03:10:37;3.33;;;1.35;;
55417;SDS011;41287;47.554;7.844;2023-05-19T03:13:03;2.75;;;1.10;;
55417;SDS011;41287;47.554;7.844;2023-05-19T03:15:28;2.83;;;1.42;;
55417;SDS011;41287;47.554;7.844;2023-05-19T03:17:54;1.98;;;1.25;;
55417;SDS011;41287;47.554;7.844;2023-05-19T03:20:20;2.58;;;1.15;;
55417;SDS011;41287;47.554;7.844;2023-05-19T03:22:45;4.07;;;1.52;;
55417;SDS011;41287;47.554;7.844;2023-05-19T03:25:11;3.00;;;1.40;;
55417;SDS011;41287;47.554;7.844;2023-05-19T03:27:38;3.40;;;1.50;;
55417;SDS011;41287;47.554;7.844;2023-05-19T03:30:04;2.60;;;1.23;;
55417;SDS011;41287;47.554;7.844;2023-05-19T03:32:29;1.50;;;1.10;;
55417;SDS011;41287;47.554;7.844;2023-05-19T03:34:56;5.38;;;1.60;;
55417;SDS011;41287;47.554;7.844;2023-05-19T03:37:22;4.10;;;1.35;;
55417;SDS011;41287;47.554;7.844;2023-05-19T03:39:49;3.13;;;1.42;;
55417;SDS011;41287;47.554;7.844;2023-05-19T03:42:15;4.03;;;1.10;;
55417;SDS011;41287;47.554;7.844;2023-05-19T03:44:40;3.10;;;1.45;;
55417;SDS011;41287;47.554;7.844;2023-05-19T03:47:05;3.30;;;1.10;;
55417;SDS011;41287;47.554;7.844;2023-05-19T03:49:31;2.53;;;1.13;;
55417;SDS011;41287;47.554;7.844;2023-05-19T03:51:58;2.28;;;1.35;;
55417;SDS011;41287;47.554;7.844;2023-05-19T03:54:23;3.88;;;1.70;;
55417;SDS011;41287;47.554;7.844;2023-05-19T03:56:49;4.55;;;1.52;;
55417;SDS011;41287;47.554;7.844;2023-05-19T03:59:14;2.63;;;1.42;;
55417;SDS011;41287;47.554;7.844;2023-05-19T04:01:40;2.70;;;1.20;;
55417;SDS011;41287;47.554;7.844;2023-05-19T04:04:06;5.63;;;1.92;;
55417;SDS011;41287;47.554;7.844;2023-05-19T04:06:33;1.92;;;1.10;;
55417;SDS011;41287;47.554;7.844;2023-05-19T04:09:01;2.45;;;0.98;;
55417;SDS011;41287;47.554;7.844;2023-05-19T04:11:27;4.22;;;1.45;;
55417;SDS011;41287;47.554;7.844;2023-05-19T04:13:52;4.15;;;1.52;;
55417;SDS011;41287;47.554;7.844;2023-05-19T04:16:18;2.13;;;1.02;;
55417;SDS011;41287;47.554;7.844;2023-05-19T04:18:43;4.13;;;1.30;;
55417;SDS011;41287;47.554;7.844;2023-05-19T04:21:10;1.60;;;1.13;;
55417;SDS011;41287;47.554;7.844;2023-05-19T04:23:35;3.00;;;1.50;;
55417;SDS011;41287;47.554;7.844;2023-05-19T04:26:00;1.52;;;0.90;;
55417;SDS011;41287;47.554;7.844;2023-05-19T04:28:27;2.95;;;1.30;;
55417;SDS011;41287;47.554;7.844;2023-05-19T04:30:55;2.17;;;1.05;;
55417;SDS011;41287;47.554;7.844;2023-05-19T04:33:22;2.40;;;1.30;;
55417;SDS011;41287;47.554;7.844;2023-05-19T04:35:47;2.17;;;1.27;;
55417;SDS011;41287;47.554;7.844;2023-05-19T04:38:14;2.50;;;1.10;;
55417;SDS011;41287;47.554;7.844;2023-05-19T04:40:42;2.90;;;1.35;;
55417;SDS011;41287;47.554;7.844;2023-05-19T04:43:10;4.55;;;1.40;;
55417;SDS011;41287;47.554;7.844;2023-05-19T04:45:35;6.60;;;1.58;;
55417;SDS011;41287;47.554;7.844;2023-05-19T04:48:01;3.25;;;1.23;;
55417;SDS011;41287;47.554;7.844;2023-05-19T04:50:27;3.17;;;1.20;;
55417;SDS011;41287;47.554;7.844;2023-05-19T04:52:56;1.90;;;1.20;;
55417;SDS011;41287;47.554;7.844;2023-05-19T04:55:23;2.53;;;1.00;;
55417;SDS011;41287;47.554;7.844;2023-05-19T04:57:48;3.00;;;1.10;;
55417;SDS011;41287;47.554;7.844;2023-05-19T05:00:13;3.25;;;1.50;;
55417;SDS011;41287;47.554;7.844;2023-05-19T05:02:39;1.23;;;0.90;;
55417;SDS011;41287;47.554;7.844;2023-05-19T05:05:06;3.03;;;1.17;;
55417;SDS011;41287;47.554;7.844;2023-05-19T05:07:32;2.58;;;1.35;;
55417;SDS011;41287;47.554;7.844;2023-05-19T05:09:57;2.65;;;1.30;;
55417;SDS011;41287;47.554;7.844;2023-05-19T05:12:23;3.05;;;1.25;;
55417;SDS011;41287;47.554;7.844;2023-05-19T05:14:48;2.25;;;1.00;;
55417;SDS011;41287;47.554;7.844;2023-05-19T05:17:14;2.58;;;1.30;;
55417;SDS011;41287;47.554;7.844;2023-05-19T05:19:40;3.97;;;1.23;;
55417;SDS011;41287;47.554;7.844;2023-05-19T05:22:12;4.00;;;1.50;;
55417;SDS011;41287;47.554;7.844;2023-05-19T05:24:39;3.70;;;1.45;;
55417;SDS011;41287;47.554;7.844;2023-05-19T05:27:05;3.03;;;1.35;;
55417;SDS011;41287;47.554;7.844;2023-05-19T05:29:32;4.57;;;1.45;;
55417;SDS011;41287;47.554;7.844;2023-05-19T05:31:57;2.40;;;1.10;;
55417;SDS011;41287;47.554;7.844;2023-05-19T05:34:22;2.85;;;1.08;;
55417;SDS011;41287;47.554;7.844;2023-05-19T05:36:51;1.23;;;0.88;;
55417;SDS011;41287;47.554;7.844;2023-05-19T05:39:16;1.83;;;1.05;;
55417;SDS011;41287;47.554;7.844;2023-05-19T05:41:42;3.17;;;1.00;;
55417;SDS011;41287;47.554;7.844;2023-05-19T05:44:07;1.67;;;1.10;;
55417;SDS011;41287;47.554;7.844;2023-05-19T05:46:38;3.33;;;1.33;;
55417;SDS011;41287;47.554;7.844;2023-05-19T05:51:31;2.78;;;1.17;;
55417;SDS011;41287;47.554;7.844;2023-05-19T05:54:03;2.00;;;1.10;;
55417;SDS011;41287;47.554;7.844;2023-05-19T05:56:30;3.05;;;1.30;;
55417;SDS011;41287;47.554;7.844;2023-05-19T05:58:57;2.78;;;1.20;;
55417;SDS011;41287;47.554;7.844;2023-05-19T06:01:25;1.90;;;1.17;;
55417;SDS011;41287;47.554;7.844;2023-05-19T06:03:52;2.03;;;1.15;;
55417;SDS011;41287;47.554;7.844;2023-05-19T06:06:17;2.17;;;1.15;;
55417;SDS011;41287;47.554;7.844;2023-05-19T06:08:42;1.08;;;0.88;;
55417;SDS011;41287;47.554;7.844;2023-05-19T06:11:08;4.32;;;1.10;;
55417;SDS011;41287;47.554;7.844;2023-05-19T06:13:34;4.05;;;1.10;;
55417;SDS011;41287;47.554;7.844;2023-05-19T06:16:00;6.43;;;1.13;;
55417;SDS011;41287;47.554;7.844;2023-05-19T06:18:26;4.90;;;1.00;;
55417;SDS011;41287;47.554;7.844;2023-05-19T06:20:51;1.38;;;0.80;;
55417;SDS011;41287;47.554;7.844;2023-05-19T06:23:16;4.38;;;0.80;;
55417;SDS011;41287;47.554;7.844;2023-05-19T06:25:42;6.00;;;0.90;;
55417;SDS011;41287;47.554;7.844;2023-05-19T06:28:07;7.00;;;1.65;;
55417;SDS011;41287;47.554;7.844;2023-05-19T06:30:32;4.60;;;1.15;;
55417;SDS011;41287;47.554;7.844;2023-05-19T06:33:01;3.97;;;1.10;;
55417;SDS011;41287;47.554;7.844;2023-05-19T06:35:29;3.65;;;1.27;;
55417;SDS011;41287;47.554;7.844;2023-05-19T06:37:55;4.68;;;1.30;;
55417;SDS011;41287;47.554;7.844;2023-05-19T06:40:21;5.68;;;1.35;;
55417;SDS011;41287;47.554;7.844;2023-05-19T06:42:46;3.58;;;1.60;;
55417;SDS011;41287;47.554;7.844;2023-05-19T06:45:12;4.00;;;1.40;;
55417;SDS011;41287;47.554;7.844;2023-05-19T06:47:45;4.35;;;1.83;;
55417;SDS011;41287;47.554;7.844;2023-05-19T06:50:11;3.65;;;1.60;;
55417;SDS011;41287;47.554;7.844;2023-05-19T06:52:36;4.07;;;1.83;;
55417;SDS011;41287;47.554;7.844;2023-05-19T06:55:03;3.17;;;1.75;;
55417;SDS011;41287;47.554;7.844;2023-05-19T06:57:29;6.03;;;1.88;;
55417;SDS011;41287;47.554;7.844;2023-05-19T06:59:54;4.68;;;1.67;;
55417;SDS011;41287;47.554;7.844;2023-05-19T07:02:20;3.70;;;1.70;;
55417;SDS011;41287;47.554;7.844;2023-05-19T07:04:45;4.20;;;1.70;;
55417;SDS011;41287;47.554;7.844;2023-05-19T07:07:11;4.50;;;1.88;;
55417;SDS011;41287;47.554;7.844;2023-05-19T07:09:41;3.28;;;2.10;;
55417;SDS011;41287;47.554;7.844;2023-05-19T07:12:08;5.10;;;1.88;;
55417;SDS011;41287;47.554;7.844;2023-05-19T07:14:34;4.18;;;2.30;;
55417;SDS011;41287;47.554;7.844;2023-05-19T07:17:00;7.45;;;2.38;;
55417;SDS011;41287;47.554;7.844;2023-05-19T07:19:27;6.05;;;2.08;;
55417;SDS011;41287;47.554;7.844;2023-05-19T07:21:53;4.15;;;1.63;;
55417;SDS011;41287;47.554;7.844;2023-05-19T07:24:18;4.20;;;1.83;;
55417;SDS011;41287;47.554;7.844;2023-05-19T07:26:45;3.72;;;2.15;;
55417;SDS011;41287;47.554;7.844;2023-05-19T07:29:10;5.88;;;2.10;;
55417;SDS011;41287;47.554;7.844;2023-05-19T07:31:36;4.10;;;1.90;;
55417;SDS011;41287;47.554;7.844;2023-05-19T07:34:01;4.85;;;1.90;;
55417;SDS011;41287;47.554;7.844;2023-05-19T07:36:27;4.35;;;1.92;;
55417;SDS011;41287;47.554;7.844;2023-05-19T07:38:52;4.55;;;1.92;;
55417;SDS011;41287;47.554;7.844;2023-05-19T07:41:18;6.65;;;1.80;;
55417;SDS011;41287;47.554;7.844;2023-05-19T07:43:43;3.83;;;1.95;;
55417;SDS011;41287;47.554;7.844;2023-05-19T07:46:08;4.43;;;1.88;;
55417;SDS011;41287;47.554;7.844;2023-05-19T07:48:33;3.80;;;1.70;;
55417;SDS011;41287;47.554;7.844;2023-05-19T07:51:02;6.82;;;2.15;;
55417;SDS011;41287;47.554;7.844;2023-05-19T07:53:28;4.80;;;1.80;;
55417;SDS011;41287;47.554;7.844;2023-05-19T07:55:53;3.25;;;1.95;;
55417;SDS011;41287;47.554;7.844;2023-05-19T07:58:18;5.03;;;2.13;;
55417;SDS011;41287;47.554;7.844;2023-05-19T08:00:44;4.00;;;2.03;;
55417;SDS011;41287;47.554;7.844;2023-05-19T08:03:10;4.10;;;1.70;;
55417;SDS011;41287;47.554;7.844;2023-05-19T08:05:35;7.13;;;2.13;;
55417;SDS011;41287;47.554;7.844;2023-05-19T08:08:01;4.95;;;2.00;;
55417;SDS011;41287;47.554;7.844;2023-05-19T08:10:27;4.82;;;2.20;;
55417;SDS011;41287;47.554;7.844;2023-05-19T08:12:52;6.22;;;2.20;;
55417;SDS011;41287;47.554;7.844;2023-05-19T08:15:18;4.18;;;2.03;;
55417;SDS011;41287;47.554;7.844;2023-05-19T08:17:44;4.43;;;1.95;;
55417;SDS011;41287;47.554;7.844;2023-05-19T08:20:10;6.28;;;2.35;;
55417;SDS011;41287;47.554;7.844;2023-05-19T08:22:38;5.03;;;2.15;;
55417;SDS011;41287;47.554;7.844;2023-05-19T08:25:04;5.05;;;1.95;;
55417;SDS011;41287;47.554;7.844;2023-05-19T08:27:30;5.00;;;1.95;;
55417;SDS011;41287;47.554;7.844;2023-05-19T08:29:56;5.07;;;2.17;;
55417;SDS011;41287;47.554;7.844;2023-05-19T08:32:22;4.40;;;2.25;;
55417;SDS011;41287;47.554;7.844;2023-05-19T08:34:48;3.42;;;1.95;;
55417;SDS011;41287;47.554;7.844;2023-05-19T08:37:13;11.23;;;2.90;;
55417;SDS011;41287;47.554;7.844;2023-05-19T08:39:38;8.23;;;2.90;;
55417;SDS011;41287;47.554;7.844;2023-05-19T08:42:04;9.80;;;2.90;;
55417;SDS011;41287;47.554;7.844;2023-05-19T08:44:31;7.15;;;2.90;;
55417;SDS011;41287;47.554;7.844;2023-05-19T08:46:57;8.70;;;2.35;;
55417;SDS011;41287;47.554;7.844;2023-05-19T08:49:26;5.82;;;2.22;;
55417;SDS011;41287;47.554;7.844;2023-05-19T08:52:01;9.23;;;2.17;;
55417;SDS011;41287;47.554;7.844;2023-05-19T08:55:00;5.18;;;2.05;;
55417;SDS011;41287;47.554;7.844;2023-05-19T08:57:29;7.35;;;1.92;;
55417;SDS011;41287;47.554;7.844;2023-05-19T08:59:58;7.10;;;2.05;;
55417;SDS011;41287;47.554;7.844;2023-05-19T09:02:24;5.75;;;2.00;;
55417;SDS011;41287;47.554;7.844;2023-05-19T09:04:49;7.20;;;1.63;;
55417;SDS011;41287;47.554;7.844;2023-05-19T09:07:16;7.18;;;2.20;;
55417;SDS011;41287;47.554;7.844;2023-05-19T09:09:42;6.20;;;1.95;;
55417;SDS011;41287;47.554;7.844;2023-05-19T09:12:09;4.70;;;2.10;;
55417;SDS011;41287;47.554;7.844;2023-05-19T09:14:35;3.22;;;1.58;;
55417;SDS011;41287;47.554;7.844;2023-05-19T09:17:01;5.38;;;2.13;;
55417;SDS011;41287;47.554;7.844;2023-05-19T09:19:30;5.70;;;2.05;;
55417;SDS011;41287;47.554;7.844;2023-05-19T09:22:01;3.42;;;1.65;;
55417;SDS011;41287;47.554;7.844;2023-05-19T09:24:30;4.75;;;1.92;;
55417;SDS011;41287;47.554;7.844;2023-05-19T09:26:57;7.25;;;1.80;;
55417;SDS011;41287;47.554;7.844;2023-05-19T09:29:23;4.28;;;1.65;;
55417;SDS011;41287;47.554;7.844;2023-05-19T09:31:49;3.60;;;1.75;;
55417;SDS011;41287;47.554;7.844;2023-05-19T09:34:21;5.55;;;1.77;;
55417;SDS011;41287;47.554;7.844;2023-05-19T09:36:48;5.55;;;1.75;;
55417;SDS011;41287;47.554;7.844;2023-05-19T09:39:14;6.97;;;1.73;;
55417;SDS011;41287;47.554;7.844;2023-05-19T09:41:41;4.18;;;1.80;;
55417;SDS011;41287;47.554;7.844;2023-05-19T09:44:11;4.95;;;1.40;;
55417;SDS011;41287;47.554;7.844;2023-05-19T09:46:37;5.00;;;1.67;;
55417;SDS011;41287;47.554;7.844;2023-05-19T09:49:08;3.85;;;1.50;;
55417;SDS011;41287;47.554;7.844;2023-05-19T09:51:39;4.20;;;1.73;;
55417;SDS011;41287;47.554;7.844;2023-05-19T09:54:05;7.50;;;1.70;;
55417;SDS011;41287;47.554;7.844;2023-05-19T09:56:34;4.82;;;1.77;;
55417;SDS011;41287;47.554;7.844;2023-05-19T09:59:00;6.50;;;1.30;;
55417;SDS011;41287;47.554;7.844;2023-05-19T10:01:29;4.63;;;1.40;;
55417;SDS011;41287;47.554;7.844;2023-05-19T10:03:57;4.25;;;1.58;;
55417;SDS011;41287;47.554;7.844;2023-05-19T10:06:25;4.72;;;1.60;;
55417;SDS011;41287;47.554;7.844;2023-05-19T10:08:51;4.90;;;1.45;;
55417;SDS011;41287;47.554;7.844;2023-05-19T10:11:17;2.78;;;1.40;;
55417;SDS011;41287;47.554;7.844;2023-05-19T10:13:43;3.25;;;1.20;;
55417;SDS011;41287;47.554;7.844;2023-05-19T10:16:09;3.70;;;1.20;;
55417;SDS011;41287;47.554;7.844;2023-05-19T10:18:35;1.70;;;1.02;;
55417;SDS011;41287;47.554;7.844;2023-05-19T10:21:02;6.43;;;1.25;;
55417;SDS011;41287;47.554;7.844;2023-05-19T10:23:28;4.00;;;1.33;;
55417;SDS011;41287;47.554;7.844;2023-05-19T10:25:54;2.10;;;1.00;;
55417;SDS011;41287;47.554;7.844;2023-05-19T10:28:22;4.40;;;1.10;;
55417;SDS011;41287;47.554;7.844;2023-05-19T10:30:52;4.05;;;1.13;;
55417;SDS011;41287;47.554;7.844;2023-05-19T10:33:35;2.30;;;1.30;;
55417;SDS011;41287;47.554;7.844;2023-05-19T10:36:24;6.18;;;1.10;;
55417;SDS011;41287;47.554;7.844;2023-05-19T10:39:19;3.20;;;1.15;;
55417;SDS011;41287;47.554;7.844;2023-05-19T10:47:28;4.90;;;1.58;;
55417;SDS011;41287;47.554;7.844;2023-05-19T10:49:56;4.20;;;1.20;;
55417;SDS011;41287;47.554;7.844;2023-05-19T10:52:24;2.90;;;1.42;;
55417;SDS011;41287;47.554;7.844;2023-05-19T10:54:50;3.90;;;1.60;;
55417;SDS011;41287;47.554;7.844;2023-05-19T10:57:18;5.63;;;1.52;;
55417;SDS011;41287;47.554;7.844;2023-05-19T10:59:48;3.97;;;1.60;;
55417;SDS011;41287;47.554;7.844;2023-05-19T11:05:13;2.58;;;1.30;;
55417;SDS011;41287;47.554;7.844;2023-05-19T11:07:53;3.45;;;1.40;;
55417;SDS011;41287;47.554;7.844;2023-05-19T11:10:23;2.45;;;1.45;;
55417;SDS011;41287;47.554;7.844;2023-05-19T11:15:20;3.00;;;1.50;;
55417;SDS011;41287;47.554;7.844;2023-05-19T11:17:50;4.32;;;1.60;;
55417;SDS011;41287;47.554;7.844;2023-05-19T11:20:23;3.78;;;1.27;;
55417;SDS011;41287;47.554;7.844;2023-05-19T11:23:00;3.88;;;1.90;;
55417;SDS011;41287;47.554;7.844;2023-05-19T11:25:42;5.55;;;1.52;;
55417;SDS011;41287;47.554;7.844;2023-05-19T11:28:18;3.70;;;1.35;;
55417;SDS011;41287;47.554;7.844;2023-05-19T11:30:46;4.05;;;1.55;;
55417;SDS011;41287;47.554;7.844;2023-05-19T11:33:15;3.03;;;1.42;;
55417;SDS011;41287;47.554;7.844;2023-05-19T11:35:47;2.85;;;1.33;;
55417;SDS011;41287;47.554;7.844;2023-05-19T11:38:14;3.10;;;1.35;;
55417;SDS011;41287;47.554;7.844;2023-05-19T11:40:41;3.58;;;1.50;;
55417;SDS011;41287;47.554;7.844;2023-05-19T11:43:07;3.13;;;1.20;;
55417;SDS011;41287;47.554;7.844;2023-05-19T11:45:33;3.50;;;1.13;;
55417;SDS011;41287;47.554;7.844;2023-05-19T11:47:58;3.05;;;1.23;;
55417;SDS011;41287;47.554;7.844;2023-05-19T11:50:24;3.00;;;1.23;;
55417;SDS011;41287;47.554;7.844;2023-05-19T11:52:50;2.75;;;0.93;;
55417;SDS011;41287;47.554;7.844;2023-05-19T11:55:17;4.50;;;1.30;;
55417;SDS011;41287;47.554;7.844;2023-05-19T11:57:55;2.88;;;1.40;;
55417;SDS011;41287;47.554;7.844;2023-05-19T12:00:27;3.00;;;1.30;;
55417;SDS011;41287;47.554;7.844;2023-05-19T12:02:54;4.70;;;1.40;;
55417;SDS011;41287;47.554;7.844;2023-05-19T12:05:23;2.42;;;1.52;;
55417;SDS011;41287;47.554;7.844;2023-05-19T12:07:50;6.68;;;1.40;;
55417;SDS011;41287;47.554;7.844;2023-05-19T12:10:23;3.92;;;1.20;;
55417;SDS011;41287;47.554;7.844;2023-05-19T12:12:50;3.92;;;1.20;;
55417;SDS011;41287;47.554;7.844;2023-05-19T12:15:19;5.28;;;1.50;;
55417;SDS011;41287;47.554;7.844;2023-05-19T12:17:49;4.25;;;1.30;;
55417;SDS011;41287;47.554;7.844;2023-05-19T12:20:15;3.42;;;1.30;;
55417;SDS011;41287;47.554;7.844;2023-05-19T12:22:41;6.93;;;1.30;;
55417;SDS011;41287;47.554;7.844;2023-05-19T12:25:11;3.00;;;1.55;;
55417;SDS011;41287;47.554;7.844;2023-05-19T12:27:37;4.55;;;1.55;;
55417;SDS011;41287;47.554;7.844;2023-05-19T12:30:02;12.70;;;1.73;;
55417;SDS011;41287;47.554;7.844;2023-05-19T12:32:29;7.00;;;1.75;;
55417;SDS011;41287;47.554;7.844;2023-05-19T12:34:54;3.97;;;1.65;;
55417;SDS011;41287;47.554;7.844;2023-05-19T12:37:25;3.55;;;1.50;;
55417;SDS011;41287;47.554;7.844;2023-05-19T12:39:51;4.35;;;1.50;;
55417;SDS011;41287;47.554;7.844;2023-05-19T12:42:17;4.70;;;1.48;;
55417;SDS011;41287;47.554;7.844;2023-05-19T12:44:43;3.72;;;1.58;;
55417;SDS011;41287;47.554;7.844;2023-05-19T12:47:17;6.90;;;1.83;;
55417;SDS011;41287;47.554;7.844;2023-05-19T12:52:24;4.30;;;1.52;;
55417;SDS011;41287;47.554;7.844;2023-05-19T12:54:59;3.60;;;1.55;;
55417;SDS011;41287;47.554;7.844;2023-05-19T12:57:26;3.08;;;1.15;;
55417;SDS011;41287;47.554;7.844;2023-05-19T13:00:02;4.18;;;1.55;;
55417;SDS011;41287;47.554;7.844;2023-05-19T13:02:53;3.40;;;1.27;;
55417;SDS011;41287;47.554;7.844;2023-05-19T13:05:22;4.00;;;1.60;;
55417;SDS011;41287;47.554;7.844;2023-05-19T13:10:23;4.20;;;1.20;;
55417;SDS011;41287;47.554;7.844;2023-05-19T13:12:51;3.70;;;1.25;;
55417;SDS011;41287;47.554;7.844;2023-05-19T13:15:17;3.35;;;1.20;;
55417;SDS011;41287;47.554;7.844;2023-05-19T13:17:43;1.70;;;0.98;;
55417;SDS011;41287;47.554;7.844;2023-05-19T13:20:11;3.03;;;0.95;;
55417;SDS011;41287;47.554;7.844;2023-05-19T13:22:37;2.97;;;0.95;;
55417;SDS011;41287;47.554;7.844;2023-05-19T13:25:02;3.58;;;1.10;;
55417;SDS011;41287;47.554;7.844;2023-05-19T13:27:28;2.53;;;1.25;;
55417;SDS011;41287;47.554;7.844;2023-05-19T13:29:53;2.28;;;1.20;;
55417;SDS011;41287;47.554;7.844;2023-05-19T13:32:18;4.88;;;1.50;;
55417;SDS011;41287;47.554;7.844;2023-05-19T13:34:44;6.05;;;1.48;;
55417;SDS011;41287;47.554;7.844;2023-05-19T13:37:09;3.03;;;0.98;;
55417;SDS011;41287;47.554;7.844;2023-05-19T13:39:35;2.95;;;1.10;;
55417;SDS011;41287;47.554;7.844;2023-05-19T13:42:05;2.65;;;1.00;;
55417;SDS011;41287;47.554;7.844;2023-05-19T13:44:31;4.30;;;1.08;;
55417;SDS011;41287;47.554;7.844;2023-05-19T13:46:56;4.13;;;1.23;;
55417;SDS011;41287;47.554;7.844;2023-05-19T13:49:22;2.85;;;1.17;;
55417;SDS011;41287;47.554;7.844;2023-05-19T13:51:47;2.13;;;0.93;;
55417;SDS011;41287;47.554;7.844;2023-05-19T13:54:14;4.20;;;1.10;;
55417;SDS011;41287;47.554;7.844;2023-05-19T13:56:41;3.50;;;1.08;;
55417;SDS011;41287;47.554;7.844;2023-05-19T13:59:08;4.60;;;1.50;;
55417;SDS011;41287;47.554;7.844;2023-05-19T14:01:33;3.78;;;0.90;;
55417;SDS011;41287;47.554;7.844;2023-05-19T14:03:59;5.22;;;1.58;;
55417;SDS011;41287;47.554;7.844;2023-05-19T14:06:24;5.65;;;1.30;;
55417;SDS011;41287;47.554;7.844;2023-05-19T14:08:49;5.90;;;1.58;;
55417;SDS011;41287;47.554;7.844;2023-05-19T14:11:18;6.35;;;1.30;;
55417;SDS011;41287;47.554;7.844;2023-05-19T14:13:47;1.90;;;1.10;;
55417;SDS011;41287;47.554;7.844;2023-05-19T14:16:13;3.50;;;1.00;;
55417;SDS011;41287;47.554;7.844;2023-05-19T14:18:39;2.65;;;1.00;;
55417;SDS011;41287;47.554;7.844;2023-05-19T14:21:04;2.63;;;1.00;;
55417;SDS011;41287;47.554;7.844;2023-05-19T14:23:30;2.38;;;1.20;;
55417;SDS011;41287;47.554;7.844;2023-05-19T14:25:56;2.13;;;1.10;;
55417;SDS011;41287;47.554;7.844;2023-05-19T14:28:21;3.75;;;1.20;;
55417;SDS011;41287;47.554;7.844;2023-05-19T14:30:46;2.55;;;1.45;;
55417;SDS011;41287;47.554;7.844;2023-05-19T14:33:12;2.67;;;1.00;;
55417;SDS011;41287;47.554;7.844;2023-05-19T14:35:40;2.78;;;1.50;;
55417;SDS011;41287;47.554;7.844;2023-05-19T14:38:05;4.55;;;1.60;;
55417;SDS011;41287;47.554;7.844;2023-05-19T14:40:31;4.63;;;0.93;;
55417;SDS011;41287;47.554;7.844;2023-05-19T14:42:56;2.40;;;1.17;;
55417;SDS011;41287;47.554;7.844;2023-05-19T14:45:21;4.10;;;1.23;;
55417;SDS011;41287;47.554;7.844;2023-05-19T14:47:49;3.53;;;1.58;;
55417;SDS011;41287;47.554;7.844;2023-05-19T14:50:14;3.55;;;1.48;;
55417;SDS011;41287;47.554;7.844;2023-05-19T14:52:39;2.85;;;1.10;;
55417;SDS011;41287;47.554;7.844;2023-05-19T14:55:05;4.22;;;1.20;;
55417;SDS011;41287;47.554;7.844;2023-05-19T14:57:30;5.53;;;1.55;;
55417;SDS011;41287;47.554;7.844;2023-05-19T14:59:56;2.45;;;1.15;;
55417;SDS011;41287;47.554;7.844;2023-05-19T15:02:21;4.10;;;1.20;;
55417;SDS011;41287;47.554;7.844;2023-05-19T15:04:46;2.60;;;1.00;;
55417;SDS011;41287;47.554;7.844;2023-05-19T15:07:12;3.67;;;1.08;;
55417;SDS011;41287;47.554;7.844;2023-05-19T15:09:37;4.07;;;1.42;;
55417;SDS011;41287;47.554;7.844;2023-05-19T15:12:03;3.95;;;1.73;;
55417;SDS011;41287;47.554;7.844;2023-05-19T15:14:28;2.90;;;1.40;;
55417;SDS011;41287;47.554;7.844;2023-05-19T15:16:53;5.47;;;1.48;;
55417;SDS011;41287;47.554;7.844;2023-05-19T15:19:19;2.53;;;1.20;;
55417;SDS011;41287;47.554;7.844;2023-05-19T15:21:44;1.73;;;1.00;;
55417;SDS011;41287;47.554;7.844;2023-05-19T15:24:10;4.25;;;1.13;;